sensor_id;sensor_type;location;lat;lon;timestamp;P1;durP1;ratioP1;P2;durP2;ratioP2
32323;SDS011;25666;44.350;9.222;2022-12-18T00:00:58;13.50;;;4.43;;
32323;SDS011;25666;44.350;9.222;2022-12-18T00:03:23;10.15;;;4.32;;
32323;SDS011;25666;44.350;9.222;2022-12-18T00:05:50;11.35;;;3.35;;
32323;SDS011;25666;44.350;9.222;2022-12-18T00:08:17;7.88;;;3.50;;
32323;SDS011;25666;44.350;9.222;2022-12-18T00:10:44;5.55;;;3.72;;
32323;SDS011;25666;44.350;9.222;2022-12-18T00:13:10;8.60;;;4.38;;
32323;SDS011;25666;44.350;9.222;2022-12-18T00:15:36;10.50;;;3.97;;
32323;SDS011;25666;44.350;9.222;2022-12-18T00:18:03;9.40;;;4.60;;
32323;SDS011;25666;44.350;9.222;2022-12-18T00:20:28;9.13;;;4.35;;
32323;SDS011;25666;44.350;9.222;2022-12-18T00:22:54;13.00;;;4.95;;
32323;SDS011;25666;44.350;9.222;2022-12-18T00:25:20;8.27;;;4.38;;
32323;SDS011;25666;44.350;9.222;2022-12-18T00:27:46;8.88;;;4.32;;
32323;SDS011;25666;44.350;9.222;2022-12-18T00:30:13;12.45;;;4.57;;
32323;SDS011;25666;44.350;9.222;2022-12-18T00:32:39;14.00;;;3.67;;
32323;SDS011;25666;44.350;9.222;2022-12-18T00:35:05;9.13;;;3.95;;
32323;SDS011;25666;44.350;9.222;2022-12-18T00:37:33;9.18;;;3.90;;
32323;SDS011;25666;44.350;9.222;2022-12-18T00:39:59;7.40;;;2.97;;
32323;SDS011;25666;44.350;9.222;2022-12-18T00:42:25;6.93;;;2.97;;
32323;SDS011;25666;44.350;9.222;2022-12-18T00:45:09;5.78;;;2.50;;
32323;SDS011;25666;44.350;9.222;2022-12-18T00:47:37;5.28;;;2.55;;
32323;SDS011;25666;44.350;9.222;2022-12-18T00:50:04;11.20;;;3.45;;
32323;SDS011;25666;44.350;9.222;2022-12-18T00:52:30;11.65;;;4.50;;
32323;SDS011;25666;44.350;9.222;2022-12-18T00:54:55;9.63;;;3.00;;
32323;SDS011;25666;44.350;9.222;2022-12-18T00:57:24;11.23;;;3.92;;
32323;SDS011;25666;44.350;9.222;2022-12-18T00:59:49;10.13;;;3.85;;
32323;SDS011;25666;44.350;9.222;2022-12-18T01:02:17;5.38;;;2.78;;
32323;SDS011;25666;44.350;9.222;2022-12-18T01:04:42;6.47;;;3.67;;
32323;SDS011;25666;44.350;9.222;2022-12-18T01:07:08;11.25;;;3.50;;
32323;SDS011;25666;44.350;9.222;2022-12-18T01:09:33;5.05;;;3.05;;
32323;SDS011;25666;44.350;9.222;2022-12-18T01:11:59;6.88;;;2.70;;
32323;SDS011;25666;44.350;9.222;2022-12-18T01:14:25;5.18;;;2.58;;
32323;SDS011;25666;44.350;9.222;2022-12-18T01:16:51;6.50;;;2.90;;
32323;SDS011;25666;44.350;9.222;2022-12-18T01:19:17;8.77;;;3.05;;
32323;SDS011;25666;44.350;9.222;2022-12-18T01:21:43;10.23;;;2.65;;
32323;SDS011;25666;44.350;9.222;2022-12-18T01:24:09;5.93;;;2.47;;
32323;SDS011;25666;44.350;9.222;2022-12-18T01:26:37;5.40;;;2.80;;
32323;SDS011;25666;44.350;9.222;2022-12-18T01:29:02;6.38;;;2.92;;
32323;SDS011;25666;44.350;9.222;2022-12-18T01:31:32;6.45;;;2.65;;
32323;SDS011;25666;44.350;9.222;2022-12-18T01:34:01;14.43;;;4.32;;
32323;SDS011;25666;44.350;9.222;2022-12-18T01:36:28;5.38;;;2.97;;
32323;SDS011;25666;44.350;9.222;2022-12-18T01:39:02;3.40;;;2.50;;
32323;SDS011;25666;44.350;9.222;2022-12-18T01:41:30;7.25;;;2.45;;
32323;SDS011;25666;44.350;9.222;2022-12-18T01:47:14;5.47;;;2.58;;
32323;SDS011;25666;44.350;9.222;2022-12-18T01:49:43;9.63;;;4.25;;
32323;SDS011;25666;44.350;9.222;2022-12-18T01:52:08;6.40;;;3.00;;
32323;SDS011;25666;44.350;9.222;2022-12-18T01:54:34;4.38;;;2.65;;
32323;SDS011;25666;44.350;9.222;2022-12-18T01:57:00;7.28;;;2.72;;
32323;SDS011;25666;44.350;9.222;2022-12-18T01:59:26;5.40;;;2.47;;
32323;SDS011;25666;44.350;9.222;2022-12-18T02:01:55;4.32;;;2.05;;
32323;SDS011;25666;44.350;9.222;2022-12-18T02:04:22;3.35;;;2.13;;
32323;SDS011;25666;44.350;9.222;2022-12-18T02:09:45;7.30;;;2.60;;
32323;SDS011;25666;44.350;9.222;2022-12-18T02:12:21;5.38;;;2.22;;
32323;SDS011;25666;44.350;9.222;2022-12-18T02:15:07;6.53;;;2.13;;
32323;SDS011;25666;44.350;9.222;2022-12-18T02:17:52;5.07;;;2.10;;
32323;SDS011;25666;44.350;9.222;2022-12-18T02:20:54;4.25;;;2.25;;
32323;SDS011;25666;44.350;9.222;2022-12-18T02:31:29;3.40;;;1.60;;
32323;SDS011;25666;44.350;9.222;2022-12-18T02:34:01;7.72;;;1.75;;
32323;SDS011;25666;44.350;9.222;2022-12-18T02:36:34;4.60;;;1.58;;
32323;SDS011;25666;44.350;9.222;2022-12-18T02:39:04;6.32;;;1.98;;
32323;SDS011;25666;44.350;9.222;2022-12-18T02:41:32;8.10;;;2.20;;
32323;SDS011;25666;44.350;9.222;2022-12-18T02:44:00;3.65;;;1.80;;
32323;SDS011;25666;44.350;9.222;2022-12-18T02:46:35;4.93;;;1.90;;
32323;SDS011;25666;44.350;9.222;2022-12-18T02:49:12;4.47;;;2.10;;
32323;SDS011;25666;44.350;9.222;2022-12-18T02:54:48;4.53;;;1.65;;
32323;SDS011;25666;44.350;9.222;2022-12-18T02:57:36;3.63;;;2.22;;
32323;SDS011;25666;44.350;9.222;2022-12-18T03:00:18;5.32;;;2.10;;
32323;SDS011;25666;44.350;9.222;2022-12-18T03:02:49;3.70;;;2.75;;
32323;SDS011;25666;44.350;9.222;2022-12-18T03:08:06;5.47;;;2.65;;
32323;SDS011;25666;44.350;9.222;2022-12-18T03:10:39;4.80;;;1.98;;
32323;SDS011;25666;44.350;9.222;2022-12-18T03:13:16;5.40;;;2.22;;
32323;SDS011;25666;44.350;9.222;2022-12-18T03:15:47;3.38;;;2.13;;
32323;SDS011;25666;44.350;9.222;2022-12-18T03:18:21;10.00;;;2.10;;
32323;SDS011;25666;44.350;9.222;2022-12-18T03:20:52;2.47;;;1.65;;
32323;SDS011;25666;44.350;9.222;2022-12-18T03:23:23;6.82;;;2.53;;
32323;SDS011;25666;44.350;9.222;2022-12-18T03:25:54;5.18;;;2.05;;
32323;SDS011;25666;44.350;9.222;2022-12-18T03:28:25;8.05;;;3.08;;
32323;SDS011;25666;44.350;9.222;2022-12-18T03:30:59;3.75;;;1.80;;
32323;SDS011;25666;44.350;9.222;2022-12-18T03:34:01;6.63;;;2.38;;
32323;SDS011;25666;44.350;9.222;2022-12-18T03:36:28;2.55;;;1.90;;
32323;SDS011;25666;44.350;9.222;2022-12-18T03:38:54;7.32;;;2.28;;
32323;SDS011;25666;44.350;9.222;2022-12-18T03:41:37;8.32;;;1.77;;
32323;SDS011;25666;44.350;9.222;2022-12-18T03:44:42;3.08;;;1.88;;
32323;SDS011;25666;44.350;9.222;2022-12-18T03:47:28;3.72;;;2.35;;
32323;SDS011;25666;44.350;9.222;2022-12-18T03:53:32;4.95;;;2.50;;
32323;SDS011;25666;44.350;9.222;2022-12-18T03:55:57;6.50;;;1.88;;
32323;SDS011;25666;44.350;9.222;2022-12-18T03:58:29;6.57;;;2.35;;
32323;SDS011;25666;44.350;9.222;2022-12-18T04:01:22;4.60;;;2.33;;
32323;SDS011;25666;44.350;9.222;2022-12-18T04:03:52;7.05;;;1.67;;
32323;SDS011;25666;44.350;9.222;2022-12-18T04:06:19;3.45;;;1.85;;
32323;SDS011;25666;44.350;9.222;2022-12-18T04:08:45;3.90;;;1.90;;
32323;SDS011;25666;44.350;9.222;2022-12-18T04:11:15;5.20;;;1.98;;
32323;SDS011;25666;44.350;9.222;2022-12-18T04:13:43;10.77;;;2.00;;
32323;SDS011;25666;44.350;9.222;2022-12-18T04:16:17;4.07;;;2.30;;
32323;SDS011;25666;44.350;9.222;2022-12-18T04:18:44;5.72;;;1.73;;
32323;SDS011;25666;44.350;9.222;2022-12-18T04:21:09;4.25;;;1.60;;
32323;SDS011;25666;44.350;9.222;2022-12-18T04:23:36;7.28;;;2.13;;
32323;SDS011;25666;44.350;9.222;2022-12-18T04:26:01;7.50;;;2.10;;
32323;SDS011;25666;44.350;9.222;2022-12-18T04:28:41;3.75;;;1.65;;
32323;SDS011;25666;44.350;9.222;2022-12-18T04:31:07;4.88;;;1.75;;
32323;SDS011;25666;44.350;9.222;2022-12-18T04:33:33;9.07;;;2.10;;
32323;SDS011;25666;44.350;9.222;2022-12-18T04:35:58;6.78;;;3.03;;
32323;SDS011;25666;44.350;9.222;2022-12-18T04:38:24;3.50;;;1.50;;
32323;SDS011;25666;44.350;9.222;2022-12-18T04:40:57;7.53;;;1.50;;
32323;SDS011;25666;44.350;9.222;2022-12-18T04:43:25;5.38;;;1.73;;
32323;SDS011;25666;44.350;9.222;2022-12-18T04:45:51;2.00;;;1.30;;
32323;SDS011;25666;44.350;9.222;2022-12-18T04:48:16;4.07;;;1.35;;
32323;SDS011;25666;44.350;9.222;2022-12-18T04:50:42;2.03;;;1.13;;
32323;SDS011;25666;44.350;9.222;2022-12-18T04:53:07;2.00;;;1.45;;
32323;SDS011;25666;44.350;9.222;2022-12-18T04:55:33;5.13;;;1.15;;
32323;SDS011;25666;44.350;9.222;2022-12-18T04:57:58;2.25;;;1.40;;
32323;SDS011;25666;44.350;9.222;2022-12-18T05:00:23;6.43;;;1.60;;
32323;SDS011;25666;44.350;9.222;2022-12-18T05:02:49;5.25;;;1.98;;
32323;SDS011;25666;44.350;9.222;2022-12-18T05:05:14;6.38;;;2.22;;
32323;SDS011;25666;44.350;9.222;2022-12-18T05:07:40;4.28;;;2.30;;
32323;SDS011;25666;44.350;9.222;2022-12-18T05:10:05;12.27;;;2.13;;
32323;SDS011;25666;44.350;9.222;2022-12-18T05:12:31;2.70;;;1.60;;
32323;SDS011;25666;44.350;9.222;2022-12-18T05:14:57;5.78;;;1.75;;
32323;SDS011;25666;44.350;9.222;2022-12-18T05:17:22;2.63;;;1.33;;
32323;SDS011;25666;44.350;9.222;2022-12-18T05:19:48;4.13;;;1.42;;
32323;SDS011;25666;44.350;9.222;2022-12-18T05:22:13;4.25;;;1.85;;
32323;SDS011;25666;44.350;9.222;2022-12-18T05:24:39;5.05;;;1.90;;
32323;SDS011;25666;44.350;9.222;2022-12-18T05:27:05;2.25;;;1.50;;
32323;SDS011;25666;44.350;9.222;2022-12-18T05:29:30;3.63;;;1.70;;
32323;SDS011;25666;44.350;9.222;2022-12-18T05:31:56;2.53;;;1.45;;
32323;SDS011;25666;44.350;9.222;2022-12-18T05:34:21;4.60;;;1.30;;
32323;SDS011;25666;44.350;9.222;2022-12-18T05:36:47;3.65;;;1.92;;
32323;SDS011;25666;44.350;9.222;2022-12-18T05:39:12;1.90;;;1.38;;
32323;SDS011;25666;44.350;9.222;2022-12-18T05:41:38;1.60;;;1.20;;
32323;SDS011;25666;44.350;9.222;2022-12-18T05:44:04;2.83;;;1.38;;
32323;SDS011;25666;44.350;9.222;2022-12-18T05:46:30;3.22;;;1.67;;
32323;SDS011;25666;44.350;9.222;2022-12-18T05:48:58;6.28;;;1.80;;
32323;SDS011;25666;44.350;9.222;2022-12-18T05:51:24;2.28;;;1.35;;
32323;SDS011;25666;44.350;9.222;2022-12-18T05:53:50;8.52;;;2.00;;
32323;SDS011;25666;44.350;9.222;2022-12-18T05:56:17;1.80;;;1.45;;
32323;SDS011;25666;44.350;9.222;2022-12-18T05:58:45;3.83;;;1.77;;
32323;SDS011;25666;44.350;9.222;2022-12-18T06:01:15;2.88;;;1.65;;
32323;SDS011;25666;44.350;9.222;2022-12-18T06:03:43;6.35;;;2.00;;
32323;SDS011;25666;44.350;9.222;2022-12-18T06:06:16;5.28;;;1.38;;
32323;SDS011;25666;44.350;9.222;2022-12-18T06:08:44;3.83;;;1.90;;
32323;SDS011;25666;44.350;9.222;2022-12-18T06:11:10;4.80;;;1.80;;
32323;SDS011;25666;44.350;9.222;2022-12-18T06:13:36;4.13;;;2.15;;
32323;SDS011;25666;44.350;9.222;2022-12-18T06:16:05;6.65;;;2.20;;
32323;SDS011;25666;44.350;9.222;2022-12-18T06:18:31;7.07;;;2.53;;
32323;SDS011;25666;44.350;9.222;2022-12-18T06:20:58;7.82;;;2.22;;
32323;SDS011;25666;44.350;9.222;2022-12-18T06:23:24;4.75;;;1.58;;
32323;SDS011;25666;44.350;9.222;2022-12-18T06:25:50;4.50;;;1.80;;
32323;SDS011;25666;44.350;9.222;2022-12-18T06:28:16;3.30;;;1.98;;
32323;SDS011;25666;44.350;9.222;2022-12-18T06:30:45;5.47;;;2.15;;
32323;SDS011;25666;44.350;9.222;2022-12-18T06:33:13;4.03;;;2.20;;
32323;SDS011;25666;44.350;9.222;2022-12-18T06:35:39;6.85;;;1.98;;
32323;SDS011;25666;44.350;9.222;2022-12-18T06:38:05;3.38;;;1.40;;
32323;SDS011;25666;44.350;9.222;2022-12-18T06:40:31;3.78;;;1.42;;
32323;SDS011;25666;44.350;9.222;2022-12-18T06:42:57;9.00;;;3.15;;
32323;SDS011;25666;44.350;9.222;2022-12-18T06:45:23;6.97;;;1.90;;
32323;SDS011;25666;44.350;9.222;2022-12-18T06:47:49;5.78;;;2.42;;
32323;SDS011;25666;44.350;9.222;2022-12-18T06:50:15;6.53;;;2.22;;
32323;SDS011;25666;44.350;9.222;2022-12-18T06:52:40;5.25;;;1.90;;
32323;SDS011;25666;44.350;9.222;2022-12-18T06:55:09;2.95;;;1.73;;
32323;SDS011;25666;44.350;9.222;2022-12-18T06:57:35;4.95;;;1.75;;
32323;SDS011;25666;44.350;9.222;2022-12-18T07:00:00;2.78;;;1.70;;
32323;SDS011;25666;44.350;9.222;2022-12-18T07:02:26;1.77;;;1.45;;
32323;SDS011;25666;44.350;9.222;2022-12-18T07:04:51;6.72;;;2.40;;
32323;SDS011;25666;44.350;9.222;2022-12-18T07:07:20;3.97;;;2.13;;
32323;SDS011;25666;44.350;9.222;2022-12-18T07:09:45;5.05;;;2.20;;
32323;SDS011;25666;44.350;9.222;2022-12-18T07:12:11;2.53;;;1.83;;
32323;SDS011;25666;44.350;9.222;2022-12-18T07:14:36;2.58;;;2.13;;
32323;SDS011;25666;44.350;9.222;2022-12-18T07:17:02;5.55;;;2.20;;
32323;SDS011;25666;44.350;9.222;2022-12-18T07:19:28;6.80;;;2.05;;
32323;SDS011;25666;44.350;9.222;2022-12-18T07:21:54;4.35;;;1.90;;
32323;SDS011;25666;44.350;9.222;2022-12-18T07:24:19;3.78;;;2.42;;
32323;SDS011;25666;44.350;9.222;2022-12-18T07:26:45;10.43;;;2.28;;
32323;SDS011;25666;44.350;9.222;2022-12-18T07:29:11;4.32;;;2.35;;
32323;SDS011;25666;44.350;9.222;2022-12-18T07:31:37;5.88;;;2.63;;
32323;SDS011;25666;44.350;9.222;2022-12-18T07:34:02;5.38;;;2.85;;
32323;SDS011;25666;44.350;9.222;2022-12-18T07:36:28;5.72;;;2.22;;
32323;SDS011;25666;44.350;9.222;2022-12-18T07:38:53;4.10;;;2.53;;
32323;SDS011;25666;44.350;9.222;2022-12-18T07:41:19;5.95;;;2.72;;
32323;SDS011;25666;44.350;9.222;2022-12-18T07:43:46;5.82;;;2.75;;
32323;SDS011;25666;44.350;9.222;2022-12-18T07:46:12;8.98;;;2.63;;
32323;SDS011;25666;44.350;9.222;2022-12-18T07:48:42;6.43;;;2.45;;
32323;SDS011;25666;44.350;9.222;2022-12-18T07:51:08;2.22;;;2.03;;
32323;SDS011;25666;44.350;9.222;2022-12-18T07:53:38;4.35;;;1.98;;
32323;SDS011;25666;44.350;9.222;2022-12-18T07:56:08;3.30;;;1.70;;
32323;SDS011;25666;44.350;9.222;2022-12-18T07:58:35;3.95;;;2.63;;
32323;SDS011;25666;44.350;9.222;2022-12-18T08:01:05;9.30;;;2.30;;
32323;SDS011;25666;44.350;9.222;2022-12-18T08:03:32;3.10;;;1.70;;
32323;SDS011;25666;44.350;9.222;2022-12-18T08:05:58;3.72;;;2.38;;
32323;SDS011;25666;44.350;9.222;2022-12-18T08:08:35;4.07;;;1.80;;
32323;SDS011;25666;44.350;9.222;2022-12-18T08:11:01;4.68;;;1.80;;
32323;SDS011;25666;44.350;9.222;2022-12-18T08:13:27;6.93;;;1.90;;
32323;SDS011;25666;44.350;9.222;2022-12-18T08:15:59;3.55;;;1.83;;
32323;SDS011;25666;44.350;9.222;2022-12-18T08:18:26;7.47;;;2.30;;
32323;SDS011;25666;44.350;9.222;2022-12-18T08:20:51;5.38;;;1.80;;
32323;SDS011;25666;44.350;9.222;2022-12-18T08:23:17;6.22;;;2.22;;
32323;SDS011;25666;44.350;9.222;2022-12-18T08:25:42;8.50;;;2.38;;
32323;SDS011;25666;44.350;9.222;2022-12-18T08:28:09;5.63;;;2.30;;
32323;SDS011;25666;44.350;9.222;2022-12-18T08:30:35;7.35;;;2.72;;
32323;SDS011;25666;44.350;9.222;2022-12-18T08:33:01;5.68;;;2.38;;
32323;SDS011;25666;44.350;9.222;2022-12-18T08:35:27;6.65;;;2.20;;
32323;SDS011;25666;44.350;9.222;2022-12-18T08:37:53;3.55;;;2.10;;
32323;SDS011;25666;44.350;9.222;2022-12-18T08:40:21;3.70;;;2.00;;
32323;SDS011;25666;44.350;9.222;2022-12-18T08:42:47;4.32;;;2.47;;
32323;SDS011;25666;44.350;9.222;2022-12-18T08:45:31;5.82;;;2.35;;
32323;SDS011;25666;44.350;9.222;2022-12-18T08:47:56;5.28;;;2.78;;
32323;SDS011;25666;44.350;9.222;2022-12-18T08:50:22;5.15;;;2.60;;
32323;SDS011;25666;44.350;9.222;2022-12-18T08:52:47;5.53;;;2.25;;
32323;SDS011;25666;44.350;9.222;2022-12-18T08:55:13;4.50;;;2.83;;
32323;SDS011;25666;44.350;9.222;2022-12-18T08:57:38;8.15;;;2.70;;
32323;SDS011;25666;44.350;9.222;2022-12-18T09:00:04;6.95;;;3.35;;
32323;SDS011;25666;44.350;9.222;2022-12-18T09:02:29;6.75;;;3.15;;
32323;SDS011;25666;44.350;9.222;2022-12-18T09:04:55;4.28;;;2.50;;
32323;SDS011;25666;44.350;9.222;2022-12-18T09:07:21;6.60;;;3.50;;
32323;SDS011;25666;44.350;9.222;2022-12-18T09:09:46;5.97;;;2.35;;
32323;SDS011;25666;44.350;9.222;2022-12-18T09:12:12;4.28;;;2.30;;
32323;SDS011;25666;44.350;9.222;2022-12-18T09:14:37;3.83;;;2.30;;
32323;SDS011;25666;44.350;9.222;2022-12-18T09:17:03;7.00;;;2.20;;
32323;SDS011;25666;44.350;9.222;2022-12-18T09:19:28;3.70;;;1.98;;
32323;SDS011;25666;44.350;9.222;2022-12-18T09:21:54;3.65;;;2.50;;
32323;SDS011;25666;44.350;9.222;2022-12-18T09:24:20;9.43;;;2.55;;
32323;SDS011;25666;44.350;9.222;2022-12-18T09:26:45;4.07;;;2.15;;
32323;SDS011;25666;44.350;9.222;2022-12-18T09:29:11;6.53;;;2.00;;
32323;SDS011;25666;44.350;9.222;2022-12-18T09:31:36;6.47;;;2.50;;
32323;SDS011;25666;44.350;9.222;2022-12-18T09:34:03;6.05;;;2.45;;
32323;SDS011;25666;44.350;9.222;2022-12-18T09:36:31;5.40;;;2.10;;
32323;SDS011;25666;44.350;9.222;2022-12-18T09:38:57;6.63;;;2.10;;
32323;SDS011;25666;44.350;9.222;2022-12-18T09:49:45;4.25;;;1.90;;
32323;SDS011;25666;44.350;9.222;2022-12-18T09:52:23;2.30;;;1.58;;
32323;SDS011;25666;44.350;9.222;2022-12-18T09:54:59;2.60;;;1.70;;
32323;SDS011;25666;44.350;9.222;2022-12-18T09:57:40;3.72;;;1.88;;
32323;SDS011;25666;44.350;9.222;2022-12-18T10:00:15;5.47;;;1.88;;
32323;SDS011;25666;44.350;9.222;2022-12-18T10:02:43;4.20;;;2.15;;
32323;SDS011;25666;44.350;9.222;2022-12-18T10:05:16;6.70;;;1.90;;
32323;SDS011;25666;44.350;9.222;2022-12-18T10:10:19;3.53;;;1.95;;
32323;SDS011;25666;44.350;9.222;2022-12-18T10:12:55;3.67;;;2.28;;
32323;SDS011;25666;44.350;9.222;2022-12-18T10:15:36;8.32;;;4.00;;
32323;SDS011;25666;44.350;9.222;2022-12-18T10:18:28;4.43;;;2.20;;
32323;SDS011;25666;44.350;9.222;2022-12-18T10:21:10;4.63;;;1.95;;
32323;SDS011;25666;44.350;9.222;2022-12-18T10:26:15;6.03;;;1.90;;
32323;SDS011;25666;44.350;9.222;2022-12-18T10:28:41;6.70;;;1.80;;
32323;SDS011;25666;44.350;9.222;2022-12-18T10:31:18;2.95;;;1.85;;
32323;SDS011;25666;44.350;9.222;2022-12-18T10:33:45;2.42;;;1.80;;
32323;SDS011;25666;44.350;9.222;2022-12-18T10:36:11;7.00;;;1.98;;
32323;SDS011;25666;44.350;9.222;2022-12-18T10:38:37;2.95;;;1.95;;
32323;SDS011;25666;44.350;9.222;2022-12-18T10:41:08;5.32;;;1.83;;
32323;SDS011;25666;44.350;9.222;2022-12-18T10:44:10;4.93;;;1.52;;
32323;SDS011;25666;44.350;9.222;2022-12-18T10:46:37;4.97;;;2.10;;
32323;SDS011;25666;44.350;9.222;2022-12-18T10:49:03;3.45;;;1.92;;
32323;SDS011;25666;44.350;9.222;2022-12-18T10:51:30;9.15;;;2.05;;
32323;SDS011;25666;44.350;9.222;2022-12-18T10:54:04;4.63;;;1.52;;
32323;SDS011;25666;44.350;9.222;2022-12-18T10:56:35;2.55;;;1.42;;
32323;SDS011;25666;44.350;9.222;2022-12-18T10:59:04;8.30;;;1.50;;
32323;SDS011;25666;44.350;9.222;2022-12-18T11:01:47;2.80;;;1.30;;
32323;SDS011;25666;44.350;9.222;2022-12-18T11:04:23;3.63;;;1.65;;
32323;SDS011;25666;44.350;9.222;2022-12-18T11:06:53;2.85;;;1.60;;
32323;SDS011;25666;44.350;9.222;2022-12-18T11:09:22;4.32;;;1.90;;
32323;SDS011;25666;44.350;9.222;2022-12-18T11:11:50;4.70;;;2.22;;
32323;SDS011;25666;44.350;9.222;2022-12-18T11:14:33;6.20;;;2.13;;
32323;SDS011;25666;44.350;9.222;2022-12-18T11:17:17;8.50;;;2.03;;
32323;SDS011;25666;44.350;9.222;2022-12-18T11:20:05;4.18;;;2.03;;
32323;SDS011;25666;44.350;9.222;2022-12-18T11:22:44;4.47;;;2.10;;
32323;SDS011;25666;44.350;9.222;2022-12-18T11:25:21;5.25;;;2.00;;
32323;SDS011;25666;44.350;9.222;2022-12-18T11:28:06;3.58;;;1.92;;
32323;SDS011;25666;44.350;9.222;2022-12-18T11:31:11;5.00;;;1.50;;
32323;SDS011;25666;44.350;9.222;2022-12-18T11:33:41;4.75;;;1.75;;
32323;SDS011;25666;44.350;9.222;2022-12-18T11:36:11;14.85;;;1.70;;
32323;SDS011;25666;44.350;9.222;2022-12-18T11:38:39;2.80;;;1.23;;
32323;SDS011;25666;44.350;9.222;2022-12-18T11:44:27;3.45;;;1.42;;
32323;SDS011;25666;44.350;9.222;2022-12-18T11:50:10;3.15;;;1.83;;
32323;SDS011;25666;44.350;9.222;2022-12-18T11:52:40;5.72;;;1.60;;
32323;SDS011;25666;44.350;9.222;2022-12-18T11:55:16;4.47;;;1.50;;
32323;SDS011;25666;44.350;9.222;2022-12-18T12:00:58;5.68;;;1.73;;
32323;SDS011;25666;44.350;9.222;2022-12-18T12:03:51;5.30;;;1.83;;
32323;SDS011;25666;44.350;9.222;2022-12-18T12:12:14;14.70;;;2.80;;
32323;SDS011;25666;44.350;9.222;2022-12-18T12:17:37;4.53;;;1.77;;
32323;SDS011;25666;44.350;9.222;2022-12-18T12:25:49;4.60;;;1.63;;
32323;SDS011;25666;44.350;9.222;2022-12-18T12:31:13;3.50;;;1.60;;
32323;SDS011;25666;44.350;9.222;2022-12-18T12:39:32;5.63;;;1.35;;
32323;SDS011;25666;44.350;9.222;2022-12-18T12:42:03;2.67;;;1.33;;
32323;SDS011;25666;44.350;9.222;2022-12-18T12:44:53;6.05;;;2.22;;
32323;SDS011;25666;44.350;9.222;2022-12-18T12:47:26;4.25;;;2.08;;
32323;SDS011;25666;44.350;9.222;2022-12-18T12:49:56;5.15;;;1.55;;
32323;SDS011;25666;44.350;9.222;2022-12-18T12:52:42;3.72;;;2.28;;
32323;SDS011;25666;44.350;9.222;2022-12-18T12:55:24;5.90;;;1.92;;
32323;SDS011;25666;44.350;9.222;2022-12-18T13:00:27;7.05;;;2.00;;
32323;SDS011;25666;44.350;9.222;2022-12-18T13:03:24;4.47;;;2.17;;
32323;SDS011;25666;44.350;9.222;2022-12-18T13:06:19;4.28;;;2.15;;
32323;SDS011;25666;44.350;9.222;2022-12-18T13:08:58;4.10;;;2.20;;
32323;SDS011;25666;44.350;9.222;2022-12-18T13:11:47;4.85;;;2.40;;
32323;SDS011;25666;44.350;9.222;2022-12-18T13:14:38;6.85;;;2.10;;
32323;SDS011;25666;44.350;9.222;2022-12-18T13:22:57;4.78;;;2.35;;
32323;SDS011;25666;44.350;9.222;2022-12-18T13:25:33;5.40;;;2.00;;
32323;SDS011;25666;44.350;9.222;2022-12-18T13:28:21;9.20;;;2.05;;
32323;SDS011;25666;44.350;9.222;2022-12-18T13:31:06;7.03;;;2.83;;
32323;SDS011;25666;44.350;9.222;2022-12-18T13:38:35;4.03;;;2.15;;
32323;SDS011;25666;44.350;9.222;2022-12-18T13:41:24;5.63;;;2.00;;
32323;SDS011;25666;44.350;9.222;2022-12-18T13:43:56;5.22;;;2.17;;
32323;SDS011;25666;44.350;9.222;2022-12-18T13:46:47;3.65;;;1.95;;
32323;SDS011;25666;44.350;9.222;2022-12-18T13:51:54;6.05;;;2.08;;
32323;SDS011;25666;44.350;9.222;2022-12-18T13:57:00;4.25;;;2.33;;
32323;SDS011;25666;44.350;9.222;2022-12-18T13:59:39;3.53;;;2.28;;
32323;SDS011;25666;44.350;9.222;2022-12-18T14:02:18;5.95;;;2.13;;
32323;SDS011;25666;44.350;9.222;2022-12-18T14:04:47;9.90;;;2.50;;
32323;SDS011;25666;44.350;9.222;2022-12-18T14:07:23;4.88;;;2.67;;
32323;SDS011;25666;44.350;9.222;2022-12-18T14:09:59;7.43;;;2.25;;
32323;SDS011;25666;44.350;9.222;2022-12-18T14:12:29;6.38;;;2.58;;
32323;SDS011;25666;44.350;9.222;2022-12-18T14:17:51;4.40;;;2.08;;
32323;SDS011;25666;44.350;9.222;2022-12-18T14:20:19;7.22;;;2.95;;
32323;SDS011;25666;44.350;9.222;2022-12-18T14:22:46;5.78;;;2.92;;
32323;SDS011;25666;44.350;9.222;2022-12-18T14:25:18;5.90;;;3.05;;
32323;SDS011;25666;44.350;9.222;2022-12-18T14:27:51;13.30;;;3.75;;
32323;SDS011;25666;44.350;9.222;2022-12-18T14:30:26;6.65;;;3.78;;
32323;SDS011;25666;44.350;9.222;2022-12-18T14:33:02;8.63;;;4.35;;
32323;SDS011;25666;44.350;9.222;2022-12-18T14:35:30;17.42;;;8.05;;
32323;SDS011;25666;44.350;9.222;2022-12-18T14:40:41;7.75;;;4.57;;
32323;SDS011;25666;44.350;9.222;2022-12-18T14:43:11;11.20;;;4.50;;
32323;SDS011;25666;44.350;9.222;2022-12-18T14:45:38;7.38;;;3.45;;
32323;SDS011;25666;44.350;9.222;2022-12-18T14:50:45;6.85;;;3.50;;
32323;SDS011;25666;44.350;9.222;2022-12-18T14:53:29;6.45;;;2.78;;
32323;SDS011;25666;44.350;9.222;2022-12-18T14:55:58;11.15;;;4.28;;
32323;SDS011;25666;44.350;9.222;2022-12-18T14:58:23;9.40;;;4.22;;
32323;SDS011;25666;44.350;9.222;2022-12-18T15:00:49;8.05;;;4.40;;
32323;SDS011;25666;44.350;9.222;2022-12-18T15:03:18;8.63;;;4.30;;
32323;SDS011;25666;44.350;9.222;2022-12-18T15:05:46;7.83;;;3.60;;
32323;SDS011;25666;44.350;9.222;2022-12-18T15:08:34;10.02;;;3.58;;
32323;SDS011;25666;44.350;9.222;2022-12-18T15:11:01;5.90;;;2.50;;
32323;SDS011;25666;44.350;9.222;2022-12-18T15:13:28;7.07;;;2.67;;
32323;SDS011;25666;44.350;9.222;2022-12-18T15:15:54;8.10;;;3.42;;
32323;SDS011;25666;44.350;9.222;2022-12-18T15:18:27;8.27;;;3.17;;
32323;SDS011;25666;44.350;9.222;2022-12-18T15:20:57;8.45;;;3.42;;
32323;SDS011;25666;44.350;9.222;2022-12-18T15:23:26;7.13;;;3.10;;
32323;SDS011;25666;44.350;9.222;2022-12-18T15:26:01;7.65;;;3.00;;
32323;SDS011;25666;44.350;9.222;2022-12-18T15:33:42;10.30;;;3.85;;
32323;SDS011;25666;44.350;9.222;2022-12-18T15:36:15;6.13;;;3.60;;
32323;SDS011;25666;44.350;9.222;2022-12-18T15:38:45;5.20;;;3.17;;
32323;SDS011;25666;44.350;9.222;2022-12-18T15:41:18;6.45;;;3.17;;
32323;SDS011;25666;44.350;9.222;2022-12-18T15:43:46;8.57;;;3.85;;
32323;SDS011;25666;44.350;9.222;2022-12-18T15:48:40;13.18;;;4.90;;
32323;SDS011;25666;44.350;9.222;2022-12-18T15:51:10;12.10;;;5.72;;
32323;SDS011;25666;44.350;9.222;2022-12-18T15:53:41;12.85;;;5.75;;
32323;SDS011;25666;44.350;9.222;2022-12-18T15:56:10;12.70;;;5.97;;
32323;SDS011;25666;44.350;9.222;2022-12-18T15:58:55;10.10;;;5.05;;
32323;SDS011;25666;44.350;9.222;2022-12-18T16:01:22;14.32;;;5.35;;
32323;SDS011;25666;44.350;9.222;2022-12-18T16:03:50;15.07;;;5.82;;
32323;SDS011;25666;44.350;9.222;2022-12-18T16:06:16;10.90;;;5.80;;
32323;SDS011;25666;44.350;9.222;2022-12-18T16:08:41;8.13;;;4.30;;
32323;SDS011;25666;44.350;9.222;2022-12-18T16:11:14;24.25;;;5.90;;
32323;SDS011;25666;44.350;9.222;2022-12-18T16:16:44;14.13;;;6.28;;
32323;SDS011;25666;44.350;9.222;2022-12-18T16:19:11;9.10;;;4.38;;
32323;SDS011;25666;44.350;9.222;2022-12-18T16:21:37;11.80;;;4.10;;
32323;SDS011;25666;44.350;9.222;2022-12-18T16:24:02;12.68;;;4.70;;
32323;SDS011;25666;44.350;9.222;2022-12-18T16:26:28;15.38;;;5.20;;
32323;SDS011;25666;44.350;9.222;2022-12-18T16:28:54;14.23;;;6.57;;
32323;SDS011;25666;44.350;9.222;2022-12-18T16:31:19;19.90;;;6.53;;
32323;SDS011;25666;44.350;9.222;2022-12-18T16:33:46;14.05;;;6.43;;
32323;SDS011;25666;44.350;9.222;2022-12-18T16:36:11;16.30;;;7.05;;
32323;SDS011;25666;44.350;9.222;2022-12-18T16:38:37;12.00;;;6.50;;
32323;SDS011;25666;44.350;9.222;2022-12-18T16:41:05;16.15;;;7.15;;
32323;SDS011;25666;44.350;9.222;2022-12-18T16:43:56;13.77;;;6.95;;
32323;SDS011;25666;44.350;9.222;2022-12-18T16:46:22;13.70;;;6.40;;
32323;SDS011;25666;44.350;9.222;2022-12-18T16:48:47;10.82;;;6.53;;
32323;SDS011;25666;44.350;9.222;2022-12-18T16:51:13;14.73;;;7.03;;